This demonstration page uses our WeatherBlox Daily Observations layout. Learn more.

38.88101, -77.10428

Hourly Observations for April 11, 2018

Temp ( °F °C ) Dew Point ( °F °C ) Humidity (%) Winds ( mph kmh ) Pressure ( in mb ) Visibility ( mi km ) Precip ( " mm )
1:52 am 01:52 Mostly Cloudy 44 6.7 24 -4.4 45 45 Calm 30.22 1023 10 16.0934 0 0
2:52 am 02:52 Cloudy 44 6.7 24 -4.4 45 45 Calm 30.21 1023 10 16.0934 0 0
3:52 am 03:52 Cloudy 43 6.1 25 -3.9 49 49 E 3 6 30.2 1023 10 16.0934 0 0
4:52 am 04:52 Cloudy 43 6.1 24 -4.4 47 47 ENE 6 9 30.2 1023 10 16.0934 0 0
5:52 am 05:52 Cloudy 43 6.1 25 -3.9 49 49 ENE 5 7 30.2 1023 10 16.0934 0 0
6:52 am 06:52 Cloudy 43 6.1 26 -3.3 51 51 ENE 3 6 30.21 1023 10 16.0934 0 0
7:52 am 07:52 Cloudy 44 6.7 27 -2.8 51 51 ENE 3 6 30.22 1024 10 16.0934 0 0
8:52 am 08:52 Cloudy 46 7.8 28 -2.2 50 50 Calm 30.24 1024 10 16.0934 0 0
9:52 am 09:52 Cloudy 47 8.3 29 -1.7 50 50 S 6 9 30.24 1024 10 16.0934 0 0
10:52 am 10:52 Cloudy 50 10 31 -0.6 48 48 S 10 17 30.23 1024 10 16.0934 0 0
11:52 am 11:52 Cloudy 50 10 27 -2.8 41 41 S 10 17 30.22 1023 10 16.0934 0 0
12:52 pm 12:52 Mostly Cloudy 51 10.6 26 -3.3 38 38 SW 8 13 30.19 1023 10 16.0934 0 0
1:52 pm 13:52 Mostly Cloudy 53 11.7 26 -3.3 35 35 WSW 6 9 30.17 1022 10 16.0934 0 0
2:52 pm 14:52 Partly Cloudy 56 13.3 29 -1.7 36 36 S 10 17 30.14 1021 10 16.0934 0 0
3:52 pm 15:52 Mostly Cloudy 56 13.3 30 -1.1 37 37 S 12 19 30.12 1020 10 16.0934 0 0
4:52 pm 16:52 Partly Cloudy 57 13.9 32 0 39 39 S 10 17 30.1 1019 10 16.0934 0 0
5:52 pm 17:52 Partly Cloudy 57 13.9 31 -0.6 37 37 SSE 12 19 30.08 1019 10 16.0934 0 0
6:52 pm 18:52 Mostly Cloudy 56 13.3 34 1.1 44 44 S 9 15 30.08 1019 10 16.0934 0 0
7:52 pm 19:52 Mostly Cloudy 53 11.7 34 1.1 48 48 S 8 13 30.08 1019 10 16.0934 0 0
8:52 pm 20:52 Partly Cloudy 52 11.1 33 0.6 49 49 S 9 15 30.09 1019 10 16.0934 0 0
9:52 pm 21:52 Mostly Clear 50 10 35 1.7 57 57 S 9 15 30.11 1020 10 16.0934 0 0
10:52 pm 22:52 Mostly Clear 49 9.4 33 0.6 55 55 S 6 9 30.11 1020 10 16.0934 0 0
11:52 pm 23:52 Mostly Clear 49 9.4 33 0.6 55 55 SE 5 7 30.11 1020 10 16.0934 0 0

Powered by AerisWeather